Time;durP1;ratioP1;P1;durP2;ratioP2;P2;SDS_P1;SDS_P2;PMS_P1;PMS_P2;Temp;Humidity;BMP_temperature;BMP_pressure;BME280_temperature;BME280_humidity;BME280_pressure;Samples;Min_cycle;Max_cycle;Signal;HPM_P1;HPM_P2
2022/10/26 00:00:32;;;;;;;;;;;;;;;18.03;45.72;99926.97;3134252;28;20049;-68
2022/10/26 00:02:04;;;;;;;21.52;4.65;;;;;;;18.03;45.64;99926.97;3137780;28;20015;-67
2022/10/26 00:03:37;;;;;;;26.65;5.80;;;;;;;18.07;45.60;99929.28;3145482;28;20919;-67
2022/10/26 00:05:09;;;;;;;24.83;4.95;;;;;;;18.10;45.73;99928.19;3133867;28;20049;-67
2022/10/26 00:06:41;;;;;;;26.98;5.43;;;;;;;18.12;45.63;99934.19;3133745;28;20079;-67
2022/10/26 00:08:12;;;;;;;19.73;5.28;;;;;;;18.09;45.72;99931.78;3133698;28;20053;-67
2022/10/26 00:09:44;;;;;;;21.27;5.03;;;;;;;18.14;45.67;99935.78;3133848;28;20098;-67
2022/10/26 00:11:17;;;;;;;16.35;5.15;;;;;;;18.15;45.55;99936.63;3134988;28;20075;-67
2022/10/26 00:12:49;;;;;;;15.10;4.65;;;;;;;18.14;45.53;99935.78;3139336;28;20056;-67
2022/10/26 00:14:23;;;;;;;26.60;5.17;;;;;;;18.09;45.42;99926.53;3133624;28;20053;-67
2022/10/26 00:15:54;;;;;;;27.50;5.72;;;;;;;18.16;45.50;99930.38;3133461;28;20041;-67
2022/10/26 00:17:26;;;;;;;17.35;5.22;;;;;;;18.14;45.38;99930.50;3133711;28;20572;-67
2022/10/26 00:18:58;;;;;;;26.50;4.82;;;;;;;18.16;45.56;99933.88;3133416;28;20056;-67
2022/10/26 00:20:32;;;;;;;30.08;4.93;;;;;;;18.17;45.54;99934.72;3133618;28;20051;-67
2022/10/26 00:22:04;;;;;;;25.13;5.65;;;;;;;18.15;45.45;99941.88;3133571;28;20053;-67
2022/10/26 00:23:36;;;;;;;19.95;5.00;;;;;;;18.03;45.49;99921.72;3133539;28;20053;-66
2022/10/26 00:25:09;;;;;;;21.15;5.57;;;;;;;18.18;45.39;99950.41;3133361;28;20056;-67
2022/10/26 00:26:40;;;;;;;22.35;5.15;;;;;;;18.15;45.39;99941.88;3138452;28;20110;-66
2022/10/26 00:28:12;;;;;;;26.08;5.20;;;;;;;18.15;45.52;99939.25;3138238;28;20049;-67
2022/10/26 00:29:45;;;;;;;30.85;5.05;;;;;;;18.14;45.58;99938.41;3133660;28;20049;-66
2022/10/26 00:31:17;;;;;;;24.92;4.82;;;;;;;18.12;45.40;99937.69;3141066;28;20045;-67
2022/10/26 00:32:49;;;;;;;20.95;5.10;;;;;;;18.11;45.35;99936.00;3133310;28;20044;-66
2022/10/26 00:34:21;;;;;;;15.20;5.05;;;;;;;18.08;45.29;99938.03;3133528;28;20057;-67
2022/10/26 00:35:53;;;;;;;29.85;4.97;;;;;;;18.04;45.44;99929.50;3135188;28;20102;-67
2022/10/26 00:37:26;;;;;;;14.85;5.40;;;;;;;18.03;45.62;99927.81;3142449;28;20433;-67
2022/10/26 00:38:58;;;;;;;25.10;4.78;;;;;;;18.04;45.58;99933.94;3144313;28;20048;-67
2022/10/26 00:40:30;;;;;;;28.02;4.55;;;;;;;18.04;45.49;99933.94;3141022;28;20441;-67
2022/10/26 00:42:02;;;;;;;28.05;6.10;;;;;;;18.00;45.23;99928.03;3141032;28;20049;-67
2022/10/26 00:43:38;;;;;;;18.27;4.45;;;;;;;18.02;45.43;99930.59;3136842;28;20111;-67
2022/10/26 00:45:20;;;;;;;21.58;4.60;;;;;;;18.01;45.33;99932.34;3140999;28;20048;-66
2022/10/26 00:46:52;;;;;;;24.77;4.35;;;;;;;17.99;45.34;99936.91;3137976;28;20053;-67
2022/10/26 00:48:28;;;;;;;23.15;5.28;;;;;;;18.01;45.14;99939.44;3132046;28;20106;-67
2022/10/26 00:50:05;;;;;;;17.23;4.35;;;;;;;17.95;45.04;99928.41;3132024;28;20052;-67
2022/10/26 00:51:40;;;;;;;24.33;4.47;;;;;;;18.00;44.98;99935.94;3132098;28;20136;-67
2022/10/26 00:53:11;;;;;;;15.23;3.50;;;;;;;18.02;45.00;99941.97;3132430;28;20130;-67
2022/10/26 00:54:44;;;;;;;21.15;3.53;;;;;;;18.03;45.00;99942.78;3132529;28;20057;-67
2022/10/26 00:56:17;;;;;;;18.40;4.47;;;;;;;18.05;44.87;99943.53;3132075;28;20049;-67
2022/10/26 00:57:51;;;;;;;20.20;4.32;;;;;;;18.07;44.77;99936.34;3142329;28;20151;-67
2022/10/26 00:59:24;;;;;;;21.20;4.22;;;;;;;18.07;44.67;99939.84;3133096;28;20076;-67
2022/10/26 01:00:56;;;;;;;18.52;4.38;;;;;;;18.08;44.85;99933.59;3132586;28;20506;-67
2022/10/26 01:02:28;;;;;;;12.88;3.42;;;;;;;18.08;45.05;99932.75;3140248;28;20045;-67
2022/10/26 01:04:00;;;;;;;16.92;4.53;;;;;;;18.09;44.71;99931.78;3141189;28;20060;-67
2022/10/26 01:05:33;;;;;;;9.70;3.20;;;;;;;18.13;44.85;99928.84;3133384;28;20053;-67
2022/10/26 01:07:06;;;;;;;20.83;3.47;;;;;;;18.14;44.91;99934.94;3132717;28;20041;-67
2022/10/26 01:08:38;;;;;;;17.98;3.70;;;;;;;18.13;45.14;99925.34;3138491;28;20071;-67
2022/10/26 01:10:10;;;;;;;19.48;3.72;;;;;;;18.15;45.05;99928.72;3133074;28;20053;-67
2022/10/26 01:11:42;;;;;;;22.85;3.90;;;;;;;18.17;44.99;99926.81;3133130;28;20049;-67
2022/10/26 01:13:17;;;;;;;22.00;4.10;;;;;;;18.18;44.92;99931.94;3132880;28;20057;-67
2022/10/26 01:14:49;;;;;;;17.15;3.70;;;;;;;18.17;44.93;99934.72;3132288;28;20110;-66
2022/10/26 01:16:44;;;;;;;20.70;3.40;;;;;;;18.19;45.05;99938.09;3132860;28;20049;-67
2022/10/26 01:18:25;;;;;;;26.38;5.10;;;;;;;18.22;44.89;99937.84;3132825;28;20041;-67
2022/10/26 01:20:29;;;;;;;25.35;4.18;;;;;;;18.22;45.05;99943.13;3132976;28;20057;-67
2022/10/26 01:22:06;;;;;;;15.63;3.35;;;;;;;18.22;45.05;99942.25;3132813;28;20072;-67
2022/10/26 01:23:57;;;;;;;10.90;3.70;;;;;;;18.28;44.83;99936.53;3132853;28;20102;-67
2022/10/26 01:25:46;;;;;;;16.15;3.63;;;;;;;18.24;44.97;99935.09;3143574;28;20048;-67
2022/10/26 01:27:26;;;;;;;15.95;3.90;;;;;;;18.26;45.10;99938.47;3142744;28;20060;-67
2022/10/26 01:29:20;;;;;;;14.38;3.65;;;;;;;18.26;45.14;99939.28;3145290;28;20145;-67
2022/10/26 01:30:56;;;;;;;17.95;3.67;;;;;;;18.27;45.29;99935.69;3132430;28;20563;-67
2022/10/26 01:32:31;;;;;;;18.13;4.80;;;;;;;18.28;45.24;99936.53;3132900;28;20044;-67
2022/10/26 01:34:09;;;;;;;15.13;4.50;;;;;;;18.31;45.24;99929.25;3144714;28;20539;-67
2022/10/26 01:35:49;;;;;;;15.13;4.63;;;;;;;18.34;45.14;99936.09;3133389;28;20578;-67
2022/10/26 01:37:26;;;;;;;13.23;3.60;;;;;;;18.35;45.22;99933.31;3141068;28;20115;-67
2022/10/26 01:39:05;;;;;;;14.90;4.38;;;;;;;18.38;45.40;99930.47;3144222;28;20450;-67
2022/10/26 01:40:41;;;;;;;19.40;4.40;;;;;;;18.40;45.50;99933.81;3132657;28;20061;-67
2022/10/26 01:42:16;;;;;;;19.02;3.38;;;;;;;18.45;45.42;99937.91;3139247;28;20051;-68
2022/10/26 01:43:53;;;;;;;14.98;3.50;;;;;;;18.45;45.31;99932.63;3135303;28;20134;-67
2022/10/26 01:45:27;;;;;;;18.73;4.35;;;;;;;18.47;45.20;99930.72;3132386;28;20049;-67
2022/10/26 01:47:04;;;;;;;22.05;4.00;;;;;;;18.49;45.02;99934.09;3132645;28;20156;-67
2022/10/26 01:48:37;;;;;;;20.75;4.20;;;;;;;18.48;45.09;99927.13;3132549;28;20067;-67
2022/10/26 01:50:10;;;;;;;;;;;;;;;18.39;45.17;99936.56;3132887;28;20045;-67
2022/10/26 01:51:44;;;;;;;15.77;3.60;;;;;;;18.39;45.12;99931.28;3132312;28;19924;-67
2022/10/26 01:53:17;;;;;;;17.35;3.70;;;;;;;18.44;44.89;99930.97;3132556;28;20048;-67
2022/10/26 01:54:49;;;;;;;16.55;3.60;;;;;;;18.44;45.03;99926.50;3132471;28;20049;-68
2022/10/26 01:56:24;;;;;;;25.75;4.53;;;;;;;18.48;44.92;99927.13;3132367;28;20146;-67
2022/10/26 01:58:04;;;;;;;18.23;3.92;;;;;;;18.49;45.00;99921.75;3142635;28;20056;-67
2022/10/26 02:00:06;;;;;;;17.30;3.88;;;;;;;18.51;44.80;99926.88;3132502;28;20143;-67
2022/10/26 02:02:14;;;;;;;17.95;3.92;;;;;;;18.48;44.71;99921.84;3129452;28;20041;-67
2022/10/26 02:03:55;;;;;;;19.48;3.78;;;;;;;18.46;44.67;99927.25;3129870;28;20053;-67
2022/10/26 02:05:36;;;;;;;23.48;4.88;;;;;;;18.48;44.85;99919.22;3142422;28;20052;-67
2022/10/26 02:07:18;;;;;;;18.25;4.03;;;;;;;18.48;44.73;99916.56;3132287;28;20086;-67
2022/10/26 02:09:01;;;;;;;24.33;4.72;;;;;;;18.50;44.43;99915.50;3132091;28;20064;-67
2022/10/26 02:10:46;;;;;;;13.98;3.78;;;;;;;18.52;44.62;99920.69;3132368;28;20126;-67
2022/10/26 02:12:25;;;;;;;16.63;3.35;;;;;;;18.50;44.60;99915.50;3132402;28;20049;-67
2022/10/26 02:14:07;;;;;;;16.88;4.70;;;;;;;18.51;44.67;99922.44;3132410;28;20060;-67
2022/10/26 02:15:47;;;;;;;15.32;3.63;;;;;;;18.50;44.74;99919.94;3132249;28;20049;-67
2022/10/26 02:17:27;;;;;;;20.55;4.50;;;;;;;18.50;44.65;99922.56;3131987;28;20052;-67
2022/10/26 02:19:06;;;;;;;14.98;3.55;;;;;;;18.50;44.57;99926.03;3135548;28;20056;-67
2022/10/26 02:20:44;;;;;;;15.10;3.67;;;;;;;18.48;44.52;99921.84;3132211;28;20103;-67
2022/10/26 02:22:20;;;;;;;19.98;4.22;;;;;;;18.50;44.62;99935.75;3132147;28;20048;-67
2022/10/26 02:23:55;;;;;;;14.90;3.85;;;;;;;18.47;44.56;99923.66;3132532;28;20056;-67
2022/10/26 02:25:30;;;;;;;16.48;3.53;;;;;;;18.49;44.60;99927.00;3132213;28;20064;-67
2022/10/26 02:27:06;;;;;;;15.23;3.97;;;;;;;18.50;44.55;99935.75;3136217;28;20528;-67
2022/10/26 02:28:42;;;;;;;25.63;4.47;;;;;;;18.51;44.68;99929.53;3133637;28;20110;-67
2022/10/26 02:30:15;;;;;;;23.73;4.45;;;;;;;18.50;44.77;99928.69;3133629;28;20445;-67
2022/10/26 02:31:48;;;;;;;19.38;4.00;;;;;;;18.54;44.89;99926.66;3132302;28;20102;-67
2022/10/26 02:33:22;;;;;;;16.52;3.92;;;;;;;18.53;44.74;99932.88;3138297;28;20083;-67
2022/10/26 02:34:57;;;;;;;28.80;4.10;;;;;;;18.56;44.79;99930.84;3138208;28;20453;-66
2022/10/26 02:36:32;;;;;;;14.65;4.32;;;;;;;18.60;44.71;99929.69;3136157;28;20045;-66
2022/10/26 02:38:07;;;;;;;18.95;4.50;;;;;;;18.64;44.71;99930.28;3135715;28;20051;-67
2022/10/26 02:39:40;;;;;;;15.85;4.10;;;;;;;18.67;44.71;99930.03;3141047;28;20045;-67
2022/10/26 02:41:14;;;;;;;26.23;4.57;;;;;;;18.64;44.49;99925.84;3131980;28;20107;-68
2022/10/26 02:42:46;;;;;;;17.13;3.13;;;;;;;18.66;44.46;99933.63;3142434;28;20048;-67
2022/10/26 02:44:23;;;;;;;19.88;3.70;;;;;;;18.68;44.45;99934.34;3131933;28;20049;-67
2022/10/26 02:46:02;;;;;;;20.48;4.22;;;;;;;18.69;44.46;99930.75;3139349;28;20048;-67
2022/10/26 02:47:34;;;;;;;17.88;4.22;;;;;;;18.71;44.31;99933.28;3132186;28;20135;-68
2022/10/26 02:49:06;;;;;;;13.18;4.43;;;;;;;18.73;44.22;99944.56;3131860;28;20096;-68
2022/10/26 02:50:48;;;;;;;20.42;3.53;;;;;;;18.74;44.08;99936.53;3132008;28;20496;-68
2022/10/26 02:52:26;;;;;;;15.15;3.83;;;;;;;18.73;44.18;99937.50;3132346;28;20565;-67
2022/10/26 02:54:02;;;;;;;15.77;3.75;;;;;;;18.74;44.05;99938.34;3132737;28;20092;-68
2022/10/26 02:55:39;;;;;;;19.63;4.07;;;;;;;18.61;44.25;99917.31;3132042;28;20080;-68
2022/10/26 02:57:16;;;;;;;24.92;3.95;;;;;;;18.74;44.10;99933.06;3136126;28;20505;-68
2022/10/26 02:58:52;;;;;;;21.67;4.00;;;;;;;18.74;44.04;99938.34;3137151;28;20568;-68
2022/10/26 03:00:24;;;;;;;18.52;4.75;;;;;;;18.73;44.15;99941.94;3135809;28;20066;-68
2022/10/26 03:01:57;;;;;;;21.40;4.55;;;;;;;18.70;44.17;99940.34;3139526;28;20552;-68
2022/10/26 03:03:29;;;;;;;13.10;3.72;;;;;;;18.71;44.31;99946.47;3143620;28;20048;-68
2022/10/26 03:05:11;;;;;;;27.80;4.32;;;;;;;18.72;44.19;99940.22;3131027;28;20052;-68
2022/10/26 03:06:51;;;;;;;21.98;4.43;;;;;;;18.71;44.16;99939.38;3135535;28;20157;-68
2022/10/26 03:08:24;;;;;;;14.68;4.88;;;;;;;18.72;44.21;99943.69;3131386;28;20578;-68
2022/10/26 03:09:54;;;;;;;15.00;4.10;;;;;;;18.72;44.38;99937.59;3131040;28;20060;-68
2022/10/26 03:11:26;;;;;;;13.82;3.53;;;;;;;18.73;44.30;99941.94;3131605;28;20199;-68
2022/10/26 03:12:57;;;;;;;14.48;3.67;;;;;;;18.73;44.16;99934.00;3135415;28;20056;-66
2022/10/26 03:14:29;;;;;;;16.13;3.42;;;;;;;18.76;44.42;99933.81;3131185;28;20049;-67
2022/10/26 03:16:01;;;;;;;17.65;4.35;;;;;;;18.76;44.19;99937.28;3130370;28;20755;-67
2022/10/26 03:17:32;;;;;;;15.65;3.97;;;;;;;18.80;44.31;99937.88;3131589;28;20129;-67
2022/10/26 03:19:04;;;;;;;20.92;4.45;;;;;;;18.80;44.26;99940.50;3133199;28;20499;-67
2022/10/26 03:20:36;;;;;;;23.20;3.50;;;;;;;18.81;44.04;99948.31;3133216;28;20049;-67
2022/10/26 03:22:09;;;;;;;16.55;3.60;;;;;;;18.82;44.11;99946.53;3133172;28;20406;-67
2022/10/26 03:23:41;;;;;;;16.33;4.00;;;;;;;18.80;43.77;99949.25;3133504;28;20049;-67
2022/10/26 03:25:14;;;;;;;19.48;5.07;;;;;;;18.79;43.59;99944.97;3134812;28;20132;-67
2022/10/26 03:26:46;;;;;;;20.90;4.47;;;;;;;18.77;43.37;99943.38;3141928;28;20052;-67
2022/10/26 03:28:17;;;;;;;14.65;3.50;;;;;;;18.77;43.37;99941.59;3137315;28;20041;-67
2022/10/26 03:29:49;;;;;;;18.63;3.50;;;;;;;18.74;43.29;99947.09;3134903;28;20409;-67
2022/10/26 03:31:19;;;;;;;15.60;3.38;;;;;;;18.76;43.25;99947.84;3133162;28;20436;-66
2022/10/26 03:32:51;;;;;;;14.48;3.65;;;;;;;18.78;43.25;99940.66;3133214;28;20045;-66
2022/10/26 03:34:23;;;;;;;21.98;3.25;;;;;;;18.76;43.02;99934.63;3132789;28;20073;-67
2022/10/26 03:35:56;;;;;;;13.48;3.72;;;;;;;18.79;43.05;99942.31;3133352;28;20139;-66
2022/10/26 03:37:29;;;;;;;22.25;3.50;;;;;;;18.80;42.96;99940.50;3134140;28;20080;-67
2022/10/26 03:39:01;;;;;;;;;;;;;;;18.73;43.22;99948.06;3146857;28;20052;-66
2022/10/26 03:40:34;;;;;;;13.55;3.42;;;;;;;18.70;43.31;99943.00;3135457;28;19950;-67
2022/10/26 03:42:06;;;;;;;15.48;4.90;;;;;;;18.72;43.19;99948.13;3139587;28;20048;-67
2022/10/26 03:43:38;;;;;;;19.52;3.30;;;;;;;18.75;43.27;99955.84;3138363;28;20060;-67
2022/10/26 03:45:09;;;;;;;19.00;4.45;;;;;;;18.72;43.14;99954.25;3133763;28;20045;-66
2022/10/26 03:46:41;;;;;;;13.73;3.85;;;;;;;18.74;43.00;99957.66;3134068;28;20057;-66
2022/10/26 03:48:13;;;;;;;17.98;3.47;;;;;;;18.74;43.15;99957.66;3133992;28;20052;-67
2022/10/26 03:49:45;;;;;;;15.50;4.07;;;;;;;18.73;43.21;99961.25;3134164;28;20056;-67
2022/10/26 03:51:17;;;;;;;24.75;4.18;;;;;;;18.73;43.02;99963.91;3139986;28;20055;-67
2022/10/26 03:52:50;;;;;;;19.65;3.72;;;;;;;18.69;43.35;99959.75;3133996;28;20049;-66
2022/10/26 03:54:22;;;;;;;14.90;4.10;;;;;;;18.67;43.08;99972.25;3133969;28;20069;-66
2022/10/26 03:55:54;;;;;;;20.02;3.75;;;;;;;18.67;43.16;99971.41;3134053;28;20056;-66
2022/10/26 03:57:26;;;;;;;18.42;3.83;;;;;;;18.66;43.23;99973.19;3140774;28;20053;-66
2022/10/26 03:58:58;;;;;;;18.90;4.50;;;;;;;18.65;43.30;99971.50;3137745;28;20442;-67
2022/10/26 04:00:30;;;;;;;14.90;3.67;;;;;;;18.62;43.41;99972.59;3133991;28;20099;-67
2022/10/26 04:02:01;;;;;;;16.40;3.70;;;;;;;18.60;43.28;99973.66;3137300;28;20053;-67
2022/10/26 04:03:33;;;;;;;21.00;4.35;;;;;;;18.59;43.35;99979.91;3146084;28;20102;-66
2022/10/26 04:05:05;;;;;;;15.85;3.67;;;;;;;18.55;43.46;99983.72;3133658;28;20056;-66
2022/10/26 04:06:37;;;;;;;17.20;3.53;;;;;;;18.51;43.66;99982.25;3133842;28;20053;-67
2022/10/26 04:08:10;;;;;;;18.77;4.53;;;;;;;18.49;43.66;99986.84;3135913;28;20129;-66
2022/10/26 04:09:41;;;;;;;21.98;4.30;;;;;;;18.49;43.62;99984.19;3133716;28;20080;-67
2022/10/26 04:11:13;;;;;;;19.50;3.90;;;;;;;18.45;43.62;99980.94;3133767;28;20572;-67
2022/10/26 04:12:45;;;;;;;17.10;4.60;;;;;;;18.44;43.86;99981.88;3133910;28;20049;-66
2022/10/26 04:14:16;;;;;;;16.40;3.67;;;;;;;18.39;43.90;99982.22;3133286;28;20045;-67
2022/10/26 04:15:48;;;;;;;17.45;3.90;;;;;;;18.37;43.78;99983.31;3142757;28;20448;-68
2022/10/26 04:17:20;;;;;;;18.52;4.05;;;;;;;18.36;43.89;99994.78;3138309;28;20344;-67
2022/10/26 04:18:52;;;;;;;19.60;4.68;;;;;;;18.34;43.74;99996.72;3133643;28;20068;-68
2022/10/26 04:20:25;;;;;;;15.38;3.70;;;;;;;18.33;43.92;100000.31;3135991;28;20056;-66
2022/10/26 04:21:57;;;;;;;15.75;4.25;;;;;;;18.27;43.93;99988.41;3144995;28;20052;-62
2022/10/26 04:23:30;;;;;;;18.10;4.43;;;;;;;18.23;43.86;99989.59;3145844;28;20048;-64
2022/10/26 04:25:02;;;;;;;19.42;3.65;;;;;;;18.17;43.95;99990.06;3139104;28;20106;-61
2022/10/26 04:26:33;;;;;;;15.18;4.18;;;;;;;18.10;43.96;99989.69;3138319;28;20098;-66
2022/10/26 04:28:06;;;;;;;12.60;4.10;;;;;;;18.04;44.10;99991.91;3138379;28;20060;-66
2022/10/26 04:29:37;;;;;;;20.70;3.53;;;;;;;17.91;44.34;99990.16;3133522;28;20543;-64
2022/10/26 04:31:08;;;;;;;20.77;3.55;;;;;;;17.92;44.19;100004.16;3132618;28;20372;-65
2022/10/26 04:32:40;;;;;;;34.75;16.83;;;;;;;17.93;44.29;99996.16;3141575;28;20471;-66
2022/10/26 04:34:12;;;;;;;28.13;7.07;;;;;;;17.99;44.45;100002.78;3132950;28;20044;-66
2022/10/26 04:35:45;;;;;;;19.42;4.57;;;;;;;18.01;44.64;100008.78;3133507;28;20120;-66
2022/10/26 04:37:16;;;;;;;21.00;5.00;;;;;;;17.96;44.51;100000.38;3133493;28;20044;-66
2022/10/26 04:38:50;;;;;;;18.52;4.25;;;;;;;17.99;44.73;100000.16;3140197;28;20056;-64
2022/10/26 04:40:22;;;;;;;10.70;3.53;;;;;;;17.99;45.00;100007.22;3145303;28;20463;-64
2022/10/26 04:41:54;;;;;;;24.00;4.65;;;;;;;17.99;45.12;100008.06;3143611;28;20060;-62
2022/10/26 04:43:26;;;;;;;19.45;4.47;;;;;;;17.98;45.13;100008.16;3142318;28;20497;-64
2022/10/26 04:44:57;;;;;;;13.02;4.35;;;;;;;17.98;45.18;100010.78;3133634;28;20056;-63
2022/10/26 04:46:29;;;;;;;17.02;3.28;;;;;;;17.96;45.07;100016.19;3133365;28;20045;-64
2022/10/26 04:48:04;;;;;;;17.17;4.35;;;;;;;17.95;44.98;100018.00;3133184;28;20552;-66
2022/10/26 04:49:36;;;;;;;12.85;3.97;;;;;;;17.95;44.83;100020.63;3133525;28;20115;-68
2022/10/26 04:51:08;;;;;;;24.40;4.80;;;;;;;17.94;44.90;100021.56;3139192;28;20421;-65
2022/10/26 04:52:40;;;;;;;17.50;3.63;;;;;;;17.94;44.91;100018.09;3143931;28;20437;-66
2022/10/26 04:54:13;;;;;;;10.45;3.78;;;;;;;17.89;45.07;100021.03;3137873;28;20056;-65
2022/10/26 04:55:45;;;;;;;15.98;3.58;;;;;;;17.86;45.44;100026.53;3133240;28;20140;-68
2022/10/26 04:57:17;;;;;;;17.35;3.65;;;;;;;17.87;45.45;100030.03;3134585;28;20539;-65
2022/10/26 04:58:49;;;;;;;19.30;4.32;;;;;;;17.87;45.59;100033.50;3141716;28;20056;-67
2022/10/26 05:00:21;;;;;;;18.35;4.13;;;;;;;17.88;45.59;100031.69;3137094;28;20122;-68
2022/10/26 05:01:53;;;;;;;17.38;4.50;;;;;;;17.88;45.78;100032.53;3139023;28;20529;-71
2022/10/26 05:03:24;;;;;;;22.05;5.68;;;;;;;17.93;45.89;100037.50;3145321;28;20097;-68
2022/10/26 05:04:56;;;;;;;21.92;4.53;;;;;;;17.93;45.79;100037.50;3133807;28;20052;-71
2022/10/26 05:06:29;;;;;;;20.08;4.97;;;;;;;17.93;45.80;100033.06;3132625;28;20190;-71
2022/10/26 05:08:00;;;;;;;16.30;3.47;;;;;;;17.90;46.15;100029.81;3133010;28;20099;-66
2022/10/26 05:09:34;;;;;;;18.83;3.70;;;;;;;17.95;46.18;100036.44;3133013;28;20053;-70
2022/10/26 05:11:05;;;;;;;16.83;3.58;;;;;;;17.91;46.35;100029.69;3133116;28;20469;-70
2022/10/26 05:12:37;;;;;;;25.95;4.50;;;;;;;17.91;46.38;100028.84;3133730;28;20052;-69
2022/10/26 05:14:09;;;;;;;15.93;3.85;;;;;;;17.95;46.25;100031.16;3133551;28;20102;-72
2022/10/26 05:15:41;;;;;;;16.30;3.53;;;;;;;17.96;46.33;100038.09;3131777;28;20088;-71
2022/10/26 05:17:13;;;;;;;11.63;3.90;;;;;;;18.00;46.24;100037.88;3131726;28;20446;-70
2022/10/26 05:18:48;;;;;;;24.42;3.70;;;;;;;18.02;46.25;100036.00;3135279;28;20053;-70
2022/10/26 05:20:20;;;;;;;14.18;3.85;;;;;;;18.05;46.04;100033.97;3131887;28;20152;-72
2022/10/26 05:21:52;;;;;;;17.33;4.28;;;;;;;18.05;46.26;100031.34;3132445;28;20496;-72
2022/10/26 05:23:24;;;;;;;16.85;4.05;;;;;;;18.11;46.29;100045.88;3125138;28;20084;-75
2022/10/26 05:24:58;;;;;;;19.98;3.67;;;;;;;18.16;46.24;100047.22;3122028;28;20693;-72
2022/10/26 05:26:29;;;;;;;;;;;;;;;18.16;46.06;100052.47;3122576;28;20475;-70
2022/10/26 05:28:03;;;;;;;18.50;3.50;;;;;;;18.12;46.04;100050.16;3124011;28;19939;-70
2022/10/26 05:29:35;;;;;;;17.77;4.15;;;;;;;18.27;46.10;100058.75;3121904;28;20556;-67
2022/10/26 05:31:07;;;;;;;15.43;3.42;;;;;;;18.31;45.83;100058.44;3122553;28;20060;-67
2022/10/26 05:32:39;;;;;;;13.73;3.47;;;;;;;18.42;45.86;100060.25;3122969;28;20481;-67
2022/10/26 05:34:11;;;;;;;13.13;3.78;;;;;;;18.47;45.78;100057.28;3126406;28;20426;-68
2022/10/26 05:35:43;;;;;;;20.05;3.78;;;;;;;18.59;45.62;100065.13;3129917;28;20060;-67
2022/10/26 05:37:15;;;;;;;20.67;4.28;;;;;;;18.66;45.64;100062.88;3122958;28;20092;-71
2022/10/26 05:38:47;;;;;;;18.92;4.45;;;;;;;18.74;45.60;100064.97;3128294;28;20438;-67
2022/10/26 05:40:21;;;;;;;14.95;3.72;;;;;;;18.86;45.35;100070.16;3131818;28;20054;-67
2022/10/26 05:41:53;;;;;;;23.85;11.05;;;;;;;18.93;45.32;100067.94;3122786;28;20107;-67
2022/10/26 05:43:26;;;;;;;13.35;4.63;;;;;;;19.00;45.25;100068.28;3132683;28;20118;-64
2022/10/26 05:44:57;;;;;;;20.67;7.82;;;;;;;19.06;45.16;100067.81;3123371;28;20819;-65
2022/10/26 05:46:29;;;;;;;24.63;5.95;;;;;;;19.13;45.11;100073.47;3122676;28;20613;-71
2022/10/26 05:48:01;;;;;;;17.45;4.47;;;;;;;19.24;45.00;100070.84;3122269;28;20063;-67
2022/10/26 05:49:33;;;;;;;14.25;3.90;;;;;;;19.42;44.76;100072.06;3129332;28;20064;-63
2022/10/26 05:51:06;;;;;;;16.30;5.03;;;;;;;19.62;44.54;100070.50;3129718;28;20048;-68
2022/10/26 05:52:41;;;;;;;19.08;5.00;;;;;;;19.72;44.14;100071.50;3123564;28;20059;-70
2022/10/26 05:54:13;;;;;;;23.40;6.60;;;;;;;19.83;44.00;100083.03;3122622;28;20505;-66
2022/10/26 05:55:47;;;;;;;34.08;10.43;;;;;;;19.91;43.79;100083.28;3122896;28;20049;-70
2022/10/26 05:57:20;;;;;;;71.70;35.15;;;;;;;20.05;43.67;100071.56;3123114;28;20144;-66
2022/10/26 05:58:53;;;;;;;41.40;19.83;;;;;;;20.22;43.50;100077.19;3125711;28;20084;-67
2022/10/26 06:00:27;;;;;;;15.80;5.63;;;;;;;20.48;43.15;100081.31;3122404;28;20065;-69
2022/10/26 06:02:06;;;;;;;16.15;3.70;;;;;;;20.74;42.75;100079.22;3130003;28;20109;-69
2022/10/26 06:03:53;;;;;;;15.32;3.45;;;;;;;21.14;42.42;100080.16;3134062;28;20048;-65
2022/10/26 06:05:29;;;;;;;15.70;3.70;;;;;;;21.68;41.30;100080.03;3122526;28;20064;-68
2022/10/26 06:07:02;;;;;;;14.70;3.40;;;;;;;22.27;40.13;100081.88;3122241;28;20227;-67
2022/10/26 06:08:34;;;;;;;15.07;3.75;;;;;;;22.80;39.46;100086.81;3128693;28;20049;-69
2022/10/26 06:10:07;;;;;;;25.52;4.63;;;;;;;23.37;38.47;100098.34;3133184;28;20106;-70
2022/10/26 06:11:41;;;;;;;17.83;3.58;;;;;;;23.97;37.42;100095.31;3126503;28;20052;-66
2022/10/26 06:13:14;;;;;;;27.17;4.28;;;;;;;24.54;36.74;100086.31;3123596;28;20076;-69
2022/10/26 06:14:46;;;;;;;21.55;4.43;;;;;;;25.14;35.80;100100.66;3133394;28;20048;-66
2022/10/26 06:16:33;;;;;;;20.40;4.18;;;;;;;25.82;34.89;100105.22;3132419;28;20084;-67
2022/10/26 06:18:17;;;;;;;14.63;4.10;;;;;;;26.50;34.18;100096.28;3124045;28;20049;-68
2022/10/26 06:20:04;;;;;;;18.90;3.97;;;;;;;27.24;33.40;100098.94;3122454;28;20122;-66
2022/10/26 06:21:52;;;;;;;10.95;3.38;;;;;;;27.82;32.21;100102.31;3132713;28;20138;-68
2022/10/26 06:23:46;;;;;;;15.50;3.60;;;;;;;28.45;31.58;100103.16;3133017;28;20053;-66
2022/10/26 06:25:28;;;;;;;14.27;3.75;;;;;;;28.91;30.84;100103.16;3131484;28;20810;-68
2022/10/26 06:27:12;;;;;;;15.20;3.67;;;;;;;29.38;30.36;100110.09;3123982;28;20052;-68
2022/10/26 06:28:54;;;;;;;14.77;4.03;;;;;;;29.81;29.56;100104.94;3122321;28;20186;-66
2022/10/26 06:30:26;;;;;;;14.30;3.60;;;;;;;30.23;28.45;100111.47;3123670;28;20053;-66
2022/10/26 06:31:58;;;;;;;15.25;3.97;;;;;;;30.45;27.98;100106.94;3127532;28;20553;-68
2022/10/26 06:33:30;;;;;;;12.50;3.60;;;;;;;30.66;27.82;100104.25;3132778;28;20052;-69
2022/10/26 06:35:15;;;;;;;15.23;4.07;;;;;;;31.01;27.41;100110.59;3135402;28;20585;-67
2022/10/26 06:36:47;;;;;;;20.33;4.10;;;;;;;31.39;26.90;100110.28;3124846;28;20119;-68
2022/10/26 06:38:21;;;;;;;13.07;4.43;;;;;;;31.77;26.66;100120.63;3131248;28;20045;-70
2022/10/26 06:39:56;;;;;;;14.60;3.40;;;;;;;32.05;25.88;100114.34;3133270;28;20052;-66
2022/10/26 06:41:30;;;;;;;10.45;3.45;;;;;;;32.39;25.45;100111.56;3131584;28;20048;-66
2022/10/26 06:43:08;;;;;;;14.55;3.50;;;;;;;32.47;25.01;100113.25;3122618;28;20333;-66
2022/10/26 06:44:40;;;;;;;17.58;3.97;;;;;;;32.73;24.86;100108.94;3129057;28;20183;-67
2022/10/26 06:46:23;;;;;;;8.95;3.08;;;;;;;32.96;24.63;100109.34;3128743;28;20044;-66
2022/10/26 06:48:02;;;;;;;13.65;3.28;;;;;;;33.28;24.35;100112.28;3123702;28;20051;-69
2022/10/26 06:49:37;;;;;;;15.68;3.15;;;;;;;33.57;23.92;100113.66;3122892;28;20045;-68
2022/10/26 06:51:15;;;;;;;9.90;3.40;;;;;;;33.81;23.54;100117.56;3126070;28;20055;-67
2022/10/26 06:52:55;;;;;;;13.70;3.55;;;;;;;34.02;23.10;100116.44;3132155;28;20044;-69
2022/10/26 06:54:43;;;;;;;20.42;3.75;;;;;;;34.26;22.79;100119.47;3131992;28;20254;-70
2022/10/26 06:56:16;;;;;;;14.05;3.53;;;;;;;34.47;22.74;100118.28;3131443;28;20044;-69
2022/10/26 06:57:49;;;;;;;22.45;4.25;;;;;;;34.75;22.46;100117.91;3131573;28;20143;-68
2022/10/26 06:59:32;;;;;;;11.43;3.60;;;;;;;35.17;22.16;100127.16;3128129;28;20053;-69
2022/10/26 07:01:05;;;;;;;14.23;3.80;;;;;;;35.48;21.45;100125.38;3136972;28;20111;-69
2022/10/26 07:02:37;;;;;;;21.05;4.18;;;;;;;35.48;21.62;100120.78;3137146;28;20311;-66
2022/10/26 07:04:08;;;;;;;12.20;3.63;;;;;;;35.74;21.11;100118.88;3136664;28;20048;-66
2022/10/26 07:05:40;;;;;;;16.45;3.30;;;;;;;35.83;20.68;100125.66;3129375;28;20107;-64
2022/10/26 07:07:15;;;;;;;15.95;3.33;;;;;;;35.81;20.68;100108.78;3129061;28;20173;-64
2022/10/26 07:08:48;;;;;;;9.55;3.53;;;;;;;35.81;20.39;100127.75;3132776;28;20055;-65
2022/10/26 07:10:20;;;;;;;12.45;3.40;;;;;;;35.65;20.47;100115.66;3132191;28;20560;-64
2022/10/26 07:11:51;;;;;;;11.73;2.90;;;;;;;35.64;20.73;100123.97;3138850;28;20052;-67
2022/10/26 07:13:23;;;;;;;9.45;3.55;;;;;;;35.84;20.81;100119.16;3141090;28;20058;-65
2022/10/26 07:14:57;;;;;;;18.00;3.00;;;;;;;35.91;20.20;100119.91;3133002;28;20053;-65
2022/10/26 07:16:29;;;;;;;14.98;3.22;;;;;;;35.88;20.33;100127.66;3138411;28;20576;-68
2022/10/26 07:18:02;;;;;;;13.80;3.42;;;;;;;35.94;20.29;100124.88;3128965;28;20557;-66
2022/10/26 07:19:33;;;;;;;;;;;;;;;36.23;20.39;100131.38;3140378;28;20044;-65